createdAt,value
2019-03-19T00:00:29.157Z,30.26
2019-03-19T00:02:55.488Z,30.44
2019-03-19T00:05:21.881Z,30.32
2019-03-19T00:07:48.230Z,30.39
2019-03-19T00:10:14.571Z,30.41
2019-03-19T00:12:41.013Z,30.40
2019-03-19T00:15:07.471Z,30.53
2019-03-19T00:17:33.801Z,30.49
2019-03-19T00:20:00.358Z,30.58
2019-03-19T00:22:26.553Z,30.62
2019-03-19T00:24:52.920Z,30.50
2019-03-19T00:27:19.232Z,30.60
2019-03-19T00:29:45.596Z,30.54
2019-03-19T00:32:12.058Z,30.65
2019-03-19T00:34:38.396Z,30.75
2019-03-19T00:37:04.731Z,30.72
2019-03-19T00:39:31.062Z,30.76
2019-03-19T00:41:57.425Z,30.76
2019-03-19T00:44:23.764Z,30.72
2019-03-19T00:46:50.187Z,30.81
2019-03-19T00:49:16.685Z,30.77
2019-03-19T00:51:43.088Z,30.83
2019-03-19T00:54:09.453Z,30.85
2019-03-19T00:56:35.839Z,30.77
2019-03-19T00:59:02.153Z,30.83
2019-03-19T01:01:28.504Z,30.95
2019-03-19T01:03:54.879Z,30.50
2019-03-19T01:06:21.618Z,30.61
2019-03-19T01:08:48.007Z,30.98
2019-03-19T01:11:14.382Z,31.00
2019-03-19T01:13:40.674Z,31.03
2019-03-19T01:16:07.207Z,30.98
2019-03-19T01:18:33.553Z,31.02
2019-03-19T01:20:59.891Z,31.04
2019-03-19T01:23:26.240Z,30.96
2019-03-19T01:25:55.456Z,30.79
2019-03-19T01:28:18.945Z,30.91
2019-03-19T01:30:45.276Z,30.89
2019-03-19T01:33:11.645Z,30.88
2019-03-19T01:35:37.976Z,30.79
2019-03-19T01:38:04.274Z,30.85
2019-03-19T01:40:30.671Z,30.72
2019-03-19T01:42:57.071Z,30.83
2019-03-19T01:45:23.423Z,30.70
2019-03-19T01:47:49.800Z,30.70
2019-03-19T01:50:16.153Z,30.70
2019-03-19T01:52:42.500Z,30.80
2019-03-19T01:55:08.945Z,30.86
2019-03-19T01:57:35.277Z,30.66
2019-03-19T02:00:01.671Z,30.75
2019-03-19T02:02:28.098Z,30.77
2019-03-19T02:04:54.370Z,30.66
2019-03-19T02:07:20.764Z,30.75
2019-03-19T02:09:47.229Z,30.86
2019-03-19T02:12:13.627Z,30.75
2019-03-19T02:14:40.032Z,30.62
2019-03-19T02:17:06.325Z,30.52
2019-03-19T02:19:32.728Z,30.47
2019-03-19T02:21:59.047Z,30.50
2019-03-19T02:24:25.462Z,30.54
2019-03-19T02:26:51.803Z,30.41
2019-03-19T02:29:18.132Z,30.34
2019-03-19T02:31:44.480Z,30.30
2019-03-19T02:34:10.799Z,30.25
2019-03-19T02:36:37.188Z,30.24
2019-03-19T02:39:03.522Z,30.23
2019-03-19T02:41:29.863Z,30.24
2019-03-19T02:43:56.169Z,30.25
2019-03-19T02:46:22.554Z,30.26
2019-03-19T02:48:48.910Z,30.25
2019-03-19T02:51:15.239Z,30.02
2019-03-19T02:53:41.625Z,30.14
2019-03-19T02:56:07.933Z,30.12
2019-03-19T02:58:34.275Z,30.11
2019-03-19T03:01:00.653Z,30.08
2019-03-19T03:03:26.993Z,30.03
2019-03-19T03:05:53.378Z,30.07
2019-03-19T03:08:19.728Z,30.17
2019-03-19T03:10:48.042Z,30.07
2019-03-19T03:13:12.417Z,30.17
2019-03-19T03:15:38.784Z,30.17
2019-03-19T03:18:05.162Z,30.19
2019-03-19T03:20:31.551Z,30.05
2019-03-19T03:22:57.925Z,30.02
2019-03-19T03:25:24.299Z,30.06
2019-03-19T03:27:50.648Z,29.95
2019-03-19T03:30:17.011Z,29.95
2019-03-19T03:32:43.382Z,29.88
2019-03-19T03:35:09.731Z,29.83
2019-03-19T03:37:36.060Z,29.98
2019-03-19T03:40:02.459Z,29.92
2019-03-19T03:42:28.879Z,29.89
2019-03-19T03:44:55.197Z,29.90
2019-03-19T03:47:21.635Z,29.79
2019-03-19T03:49:47.993Z,29.79
2019-03-19T03:52:14.323Z,29.82
2019-03-19T03:54:40.674Z,29.91
2019-03-19T03:57:07.082Z,29.77
2019-03-19T03:59:33.422Z,29.93
2019-03-19T04:01:59.768Z,29.56
2019-03-19T04:04:26.111Z,29.47
2019-03-19T04:06:52.496Z,29.53
2019-03-19T04:09:18.832Z,29.39
2019-03-19T04:11:45.170Z,29.31
2019-03-19T04:14:11.513Z,29.10
2019-03-19T04:16:37.900Z,29.20
2019-03-19T04:19:04.255Z,29.30
2019-03-19T04:21:30.592Z,29.81
2019-03-19T04:23:56.931Z,29.60
2019-03-19T04:26:23.266Z,29.96
2019-03-19T04:28:49.602Z,30.25
2019-03-19T04:31:16.005Z,29.79
2019-03-19T04:33:42.361Z,29.82
2019-03-19T04:36:08.691Z,29.63
2019-03-19T04:38:35.034Z,29.52
2019-03-19T04:41:01.379Z,29.27
2019-03-19T04:43:27.753Z,29.13
2019-03-19T04:45:54.130Z,29.02
2019-03-19T04:48:20.467Z,29.31
2019-03-19T04:50:46.793Z,29.14
2019-03-19T04:53:13.162Z,29.33
2019-03-19T04:55:39.496Z,29.18
2019-03-19T04:58:05.827Z,28.87
2019-03-19T05:00:32.376Z,28.77
2019-03-19T05:02:58.694Z,28.66
2019-03-19T05:05:25.064Z,28.58
2019-03-19T05:07:51.398Z,28.49
2019-03-19T05:10:17.769Z,28.36
2019-03-19T05:12:44.086Z,28.44
2019-03-19T05:15:10.646Z,28.22
2019-03-19T05:17:36.973Z,28.24
2019-03-19T05:20:03.303Z,28.08
2019-03-19T05:22:29.699Z,27.97
2019-03-19T05:24:56.001Z,28.21
2019-03-19T05:27:22.373Z,27.67
2019-03-19T05:29:48.701Z,27.57
2019-03-19T05:32:15.059Z,27.67
2019-03-19T05:34:41.500Z,27.44
2019-03-19T05:37:07.887Z,27.21
2019-03-19T05:39:34.239Z,27.32
2019-03-19T05:42:00.777Z,27.15
2019-03-19T05:44:27.071Z,27.05
2019-03-19T05:46:53.624Z,27.02
2019-03-19T05:49:19.991Z,26.78
2019-03-19T05:51:46.314Z,27.01
2019-03-19T05:54:12.700Z,27.20
2019-03-19T05:56:39.039Z,27.27
2019-03-19T05:59:05.527Z,27.34
2019-03-19T06:01:31.795Z,27.12
2019-03-19T06:03:58.215Z,27.28
2019-03-19T06:06:24.627Z,27.25
2019-03-19T06:08:50.915Z,27.03
2019-03-19T06:11:17.341Z,27.05
2019-03-19T06:13:43.718Z,27.57
2019-03-19T06:16:10.054Z,27.37
2019-03-19T06:18:36.374Z,27.58
2019-03-19T06:21:02.724Z,27.71
2019-03-19T06:23:29.046Z,27.61
2019-03-19T06:25:55.420Z,27.70
2019-03-19T06:28:21.797Z,27.61
2019-03-19T06:30:48.157Z,27.54
2019-03-19T06:33:14.495Z,26.38
2019-03-19T06:35:40.883Z,26.92
2019-03-19T06:38:07.256Z,26.62
2019-03-19T06:40:36.103Z,26.73
2019-03-19T06:43:02.480Z,26.67
2019-03-19T06:45:28.821Z,26.00
2019-03-19T06:47:55.148Z,26.27
2019-03-19T06:50:21.569Z,26.29
2019-03-19T06:52:48.004Z,25.79
2019-03-19T06:55:14.337Z,25.82
2019-03-19T06:57:40.668Z,25.76
2019-03-19T07:00:07.017Z,25.63
2019-03-19T07:02:33.427Z,25.81
2019-03-19T07:04:59.807Z,25.56
2019-03-19T07:07:26.162Z,25.44
2019-03-19T07:09:52.505Z,25.49
2019-03-19T07:12:18.850Z,25.53
2019-03-19T07:14:45.240Z,26.03
2019-03-19T07:17:11.604Z,25.32
2019-03-19T07:19:37.956Z,25.65
2019-03-19T07:22:04.478Z,25.98
2019-03-19T07:24:30.769Z,26.03
2019-03-19T07:26:57.151Z,25.80
2019-03-19T07:29:23.502Z,26.25
2019-03-19T07:31:50.097Z,25.96
2019-03-19T07:34:16.599Z,25.77
2019-03-19T07:36:42.905Z,25.96
2019-03-19T07:39:09.236Z,25.80
2019-03-19T07:41:35.721Z,25.58
2019-03-19T07:44:02.167Z,26.06
2019-03-19T07:46:28.540Z,25.89
2019-03-19T07:48:54.894Z,25.73
2019-03-19T07:51:21.365Z,25.86
2019-03-19T07:53:47.699Z,26.03
2019-03-19T07:56:14.047Z,26.25
2019-03-19T07:58:45.235Z,25.80
2019-03-19T08:01:06.810Z,25.62
2019-03-19T08:03:33.184Z,25.82
2019-03-19T08:05:59.539Z,25.98
2019-03-19T08:08:25.923Z,25.81
2019-03-19T08:10:52.282Z,25.53
2019-03-19T08:13:18.745Z,25.63
2019-03-19T08:15:45.091Z,25.73
2019-03-19T08:18:11.490Z,25.87
2019-03-19T08:20:37.862Z,25.82
2019-03-19T08:23:04.258Z,25.71
2019-03-19T08:25:30.651Z,25.73
2019-03-19T08:27:57.052Z,25.51
2019-03-19T08:30:24.855Z,25.98
2019-03-19T08:32:49.738Z,25.84
2019-03-19T08:35:16.134Z,25.68
2019-03-19T08:37:42.541Z,25.90
2019-03-19T08:40:08.868Z,26.02
2019-03-19T08:42:35.237Z,26.11
2019-03-19T08:45:01.633Z,26.00
2019-03-19T08:47:28.129Z,26.11
2019-03-19T08:49:54.436Z,26.09
2019-03-19T08:52:20.830Z,26.29
2019-03-19T08:54:47.181Z,26.26
2019-03-19T08:57:13.620Z,26.52
2019-03-19T08:59:39.968Z,26.44
2019-03-19T09:02:06.347Z,26.63
2019-03-19T09:04:32.744Z,26.74
2019-03-19T09:06:59.367Z,26.34
2019-03-19T09:09:25.675Z,26.38
2019-03-19T09:11:52.016Z,26.11
2019-03-19T09:14:20.671Z,26.67
2019-03-19T09:16:45.132Z,26.60
2019-03-19T09:19:11.475Z,26.60
2019-03-19T09:21:37.818Z,26.63
2019-03-19T09:24:04.256Z,26.51
2019-03-19T09:26:30.606Z,26.57
2019-03-19T09:28:56.962Z,26.58
2019-03-19T09:31:23.346Z,26.58
2019-03-19T09:33:49.680Z,26.57
2019-03-19T09:36:16.061Z,26.63
2019-03-19T09:38:42.465Z,26.69
2019-03-19T09:43:56.106Z,26.60
2019-03-19T09:46:22.456Z,26.54
2019-03-19T09:48:48.861Z,26.57
2019-03-19T09:51:15.240Z,26.70
2019-03-19T09:53:41.632Z,26.76
2019-03-19T09:56:08.160Z,26.70
2019-03-19T09:58:34.517Z,27.21
2019-03-19T10:01:00.888Z,27.52
2019-03-19T10:03:27.242Z,27.53
2019-03-19T10:05:53.667Z,26.86
2019-03-19T10:08:20.041Z,26.99
2019-03-19T10:10:46.403Z,26.77
2019-03-19T10:13:14.957Z,26.71
2019-03-19T10:15:39.131Z,26.91
2019-03-19T10:18:05.468Z,26.83
2019-03-19T10:20:31.974Z,26.89
2019-03-19T10:22:58.479Z,26.68
2019-03-19T10:25:24.872Z,26.66
2019-03-19T10:27:51.172Z,26.79
2019-03-19T10:30:17.525Z,26.67
2019-03-19T10:32:43.880Z,26.66
2019-03-19T10:35:10.252Z,26.70
2019-03-19T10:37:36.611Z,26.67
2019-03-19T10:40:04.039Z,26.91
2019-03-19T10:42:30.410Z,26.55
2019-03-19T10:44:56.833Z,26.89
2019-03-19T10:47:23.212Z,26.66
2019-03-19T10:49:49.535Z,26.58
2019-03-19T10:52:15.899Z,26.47
2019-03-19T10:54:42.253Z,26.83
2019-03-19T10:57:08.615Z,26.86
2019-03-19T10:59:36.262Z,26.81
2019-03-19T11:02:02.608Z,27.07
2019-03-19T11:04:28.953Z,26.76
2019-03-19T11:06:55.278Z,26.52
2019-03-19T11:09:21.681Z,26.44
2019-03-19T11:11:48.134Z,26.38
2019-03-19T11:14:14.456Z,26.62
2019-03-19T11:16:40.804Z,26.83
2019-03-19T11:19:07.197Z,26.79
2019-03-19T11:21:33.548Z,26.73
2019-03-19T11:23:59.883Z,26.79
2019-03-19T11:26:26.295Z,26.79
2019-03-19T11:28:52.641Z,27.16
2019-03-19T11:31:19.156Z,26.87
2019-03-19T11:33:47.633Z,26.88
2019-03-19T11:36:11.945Z,26.99
2019-03-19T11:38:38.336Z,27.16
2019-03-19T11:41:07.167Z,27.15
2019-03-19T11:43:31.224Z,27.16
2019-03-19T11:45:57.623Z,27.39
2019-03-19T11:48:24.604Z,27.18
2019-03-19T11:50:51.114Z,27.34
2019-03-19T11:53:17.432Z,27.09
2019-03-19T11:55:43.807Z,27.42
2019-03-19T11:58:10.148Z,27.06
2019-03-19T12:00:36.597Z,26.94
2019-03-19T12:03:11.497Z,26.96
2019-03-19T12:05:29.325Z,27.25
2019-03-19T12:07:55.682Z,27.25
2019-03-19T12:10:22.042Z,27.34
2019-03-19T12:12:48.394Z,27.42
2019-03-19T12:15:14.738Z,27.14
2019-03-19T12:17:41.184Z,27.21
2019-03-19T12:20:07.570Z,27.12
2019-03-19T12:22:34.027Z,27.25
2019-03-19T12:25:00.383Z,27.31
2019-03-19T12:27:26.710Z,27.61
2019-03-19T12:29:53.117Z,27.35
2019-03-19T12:32:19.497Z,27.29
2019-03-19T12:34:45.825Z,27.34
2019-03-19T12:37:12.223Z,27.31
2019-03-19T12:39:38.567Z,27.34
2019-03-19T12:42:04.921Z,27.47
2019-03-19T12:44:31.268Z,27.73
2019-03-19T12:46:57.654Z,27.63
2019-03-19T12:49:23.989Z,27.43
2019-03-19T12:51:50.419Z,27.50
2019-03-19T12:54:16.710Z,27.28
2019-03-19T12:56:43.042Z,27.56
2019-03-19T12:59:19.812Z,27.56
2019-03-19T13:01:35.970Z,27.49
2019-03-19T13:04:02.387Z,27.61
2019-03-19T13:06:28.757Z,27.41
2019-03-19T13:08:55.126Z,27.38
2019-03-19T13:11:21.491Z,27.27
2019-03-19T13:13:47.897Z,27.44
2019-03-19T13:16:14.330Z,27.43
2019-03-19T13:18:40.712Z,27.55
2019-03-19T13:21:07.063Z,27.34
2019-03-19T13:23:33.428Z,27.23
2019-03-19T13:25:59.802Z,27.45
2019-03-19T13:28:26.309Z,27.53
2019-03-19T13:30:52.627Z,27.49
2019-03-19T13:33:19.288Z,27.51
2019-03-19T13:35:45.729Z,27.50
2019-03-19T13:38:12.775Z,27.42
2019-03-19T13:40:38.559Z,27.44
2019-03-19T13:43:05.083Z,27.44
2019-03-19T13:45:31.432Z,28.08
2019-03-19T13:47:57.882Z,27.56
2019-03-19T13:50:24.262Z,27.44
2019-03-19T13:52:50.801Z,27.65
2019-03-19T13:55:17.133Z,27.56
2019-03-19T13:57:43.506Z,27.60
2019-03-19T14:00:10.306Z,27.60
2019-03-19T14:02:36.805Z,27.48
2019-03-19T14:05:03.140Z,27.89
2019-03-19T14:07:29.640Z,27.77
2019-03-19T14:09:56.043Z,27.70
2019-03-19T14:12:22.351Z,27.76
2019-03-19T14:14:48.838Z,27.86
2019-03-19T14:17:15.234Z,27.88
2019-03-19T14:19:41.639Z,28.01
2019-03-19T14:22:08.391Z,28.23
2019-03-19T14:24:34.880Z,28.06
2019-03-19T14:27:01.246Z,28.22
2019-03-19T14:29:27.694Z,28.11
2019-03-19T14:31:54.075Z,27.93
2019-03-19T14:34:20.469Z,27.94
2019-03-19T14:36:46.828Z,27.87
2019-03-19T14:39:15.394Z,27.80
2019-03-19T14:41:41.890Z,27.79
2019-03-19T14:44:08.259Z,27.85
2019-03-19T14:46:37.069Z,27.76
2019-03-19T14:49:03.506Z,27.68
2019-03-19T14:51:29.911Z,27.63
2019-03-19T14:53:56.375Z,27.55
2019-03-19T14:56:22.740Z,27.64
2019-03-19T14:58:49.246Z,27.79
2019-03-19T15:01:19.537Z,27.59
2019-03-19T15:03:42.031Z,27.21
2019-03-19T15:06:08.442Z,27.20
2019-03-19T15:08:34.885Z,27.33
2019-03-19T15:11:01.325Z,27.37
2019-03-19T15:13:27.697Z,27.28
2019-03-19T15:15:54.049Z,27.39
2019-03-19T15:18:20.441Z,26.97
2019-03-19T15:20:46.779Z,27.41
2019-03-19T15:23:13.144Z,27.25
2019-03-19T15:25:39.523Z,27.08
2019-03-19T15:28:05.937Z,27.37
2019-03-19T15:30:32.271Z,27.44
2019-03-19T15:32:58.627Z,27.19
2019-03-19T15:35:25.059Z,27.28
2019-03-19T15:37:51.475Z,27.10
2019-03-19T15:40:17.897Z,27.32
2019-03-19T15:42:44.290Z,27.09
2019-03-19T15:45:10.647Z,27.17
2019-03-19T15:47:37.090Z,26.99
2019-03-19T15:50:03.459Z,27.13
2019-03-19T15:52:29.890Z,26.93
2019-03-19T15:54:56.249Z,27.26
2019-03-19T15:57:22.575Z,27.06
2019-03-19T15:59:48.923Z,27.27
2019-03-19T16:02:15.321Z,27.07
2019-03-19T16:04:41.675Z,27.06
2019-03-19T16:07:08.068Z,27.21
2019-03-19T16:09:34.377Z,27.14
2019-03-19T16:12:00.773Z,27.12
2019-03-19T16:14:27.115Z,27.01
2019-03-19T16:16:53.545Z,27.17
2019-03-19T16:19:22.325Z,27.09
2019-03-19T16:21:48.753Z,27.35
2019-03-19T16:24:15.136Z,27.27
2019-03-19T16:26:41.496Z,27.29
2019-03-19T16:29:07.824Z,27.02
2019-03-19T16:31:34.189Z,27.45
2019-03-19T16:34:00.537Z,27.28
2019-03-19T16:36:26.868Z,27.15
2019-03-19T16:38:53.199Z,27.47
2019-03-19T16:41:19.630Z,27.54
2019-03-19T16:43:45.961Z,27.34
2019-03-19T16:46:12.342Z,27.07
2019-03-19T16:48:38.725Z,27.05
2019-03-19T16:51:05.067Z,27.28
2019-03-19T16:53:31.485Z,27.31
2019-03-19T16:55:57.866Z,27.45
2019-03-19T16:58:24.168Z,27.40
2019-03-19T17:00:50.550Z,27.33
2019-03-19T17:03:16.885Z,27.31
2019-03-19T17:05:45.219Z,27.57
2019-03-19T17:08:09.604Z,27.38
2019-03-19T17:10:36.007Z,27.55
2019-03-19T17:13:02.329Z,27.35
2019-03-19T17:15:28.775Z,27.34
2019-03-19T17:17:55.170Z,27.53
2019-03-19T17:20:21.524Z,27.35
2019-03-19T17:22:47.907Z,27.48
2019-03-19T17:25:14.268Z,27.29
2019-03-19T17:27:40.722Z,27.58
2019-03-19T17:30:07.059Z,27.47
2019-03-19T17:32:33.482Z,27.54
2019-03-19T17:34:59.831Z,27.47
2019-03-19T17:37:26.162Z,27.15
2019-03-19T17:39:52.587Z,27.54
2019-03-19T17:42:18.918Z,27.54
2019-03-19T17:44:45.293Z,27.52
2019-03-19T17:47:11.737Z,27.63
2019-03-19T17:49:38.028Z,27.63
2019-03-19T17:52:04.359Z,27.52
2019-03-19T17:54:30.686Z,27.68
2019-03-19T17:56:57.057Z,27.68
2019-03-19T17:59:23.399Z,27.66
2019-03-19T18:01:49.773Z,27.68
2019-03-19T18:04:16.110Z,27.50
2019-03-19T18:06:43.292Z,27.70
2019-03-19T18:09:08.812Z,27.96
2019-03-19T18:11:35.151Z,27.89
2019-03-19T18:14:01.515Z,27.92
2019-03-19T18:16:27.851Z,27.88
2019-03-19T18:18:54.394Z,27.87
2019-03-19T18:21:20.771Z,27.84
2019-03-19T18:23:47.145Z,27.99
2019-03-19T18:26:13.469Z,27.92
2019-03-19T18:28:39.806Z,27.66
2019-03-19T18:31:06.147Z,27.86
2019-03-19T18:33:32.480Z,27.90
2019-03-19T18:35:58.857Z,27.92
2019-03-19T18:38:25.179Z,27.89
2019-03-19T18:40:51.535Z,27.95
2019-03-19T18:43:17.871Z,27.89
2019-03-19T18:45:44.214Z,27.99
2019-03-19T18:48:10.578Z,27.95
2019-03-19T18:50:36.942Z,27.86
2019-03-19T18:53:03.334Z,27.98
2019-03-19T18:55:29.630Z,27.93
2019-03-19T18:57:56.072Z,27.96
2019-03-19T19:00:22.435Z,27.92
2019-03-19T19:02:50.475Z,27.86
2019-03-19T19:05:15.167Z,27.86
2019-03-19T19:07:41.558Z,28.01
2019-03-19T19:10:07.879Z,28.05
2019-03-19T19:12:34.393Z,28.08
2019-03-19T19:15:00.772Z,28.08
2019-03-19T19:17:27.074Z,28.04
2019-03-19T19:19:53.397Z,28.03
2019-03-19T19:22:19.729Z,28.13
2019-03-19T19:24:46.091Z,28.03
2019-03-19T19:27:12.458Z,28.16
2019-03-19T19:29:38.838Z,28.09
2019-03-19T19:32:05.166Z,28.22
2019-03-19T19:34:31.456Z,28.22
2019-03-19T19:36:57.792Z,28.45
2019-03-19T19:39:24.198Z,28.38
2019-03-19T19:41:50.516Z,28.21
2019-03-19T19:44:16.927Z,28.18
2019-03-19T19:46:43.230Z,28.07
2019-03-19T19:49:09.614Z,28.41
2019-03-19T19:51:35.904Z,28.24
2019-03-19T19:54:02.235Z,28.45
2019-03-19T19:56:28.870Z,28.40
2019-03-19T19:58:55.212Z,28.53
2019-03-19T20:01:21.544Z,28.49
2019-03-19T20:03:47.876Z,28.39
2019-03-19T20:06:14.214Z,28.44
2019-03-19T20:08:40.537Z,28.47
2019-03-19T20:11:06.875Z,28.42
2019-03-19T20:13:33.217Z,28.59
2019-03-19T20:15:59.649Z,28.36
2019-03-19T20:18:26.025Z,28.53
2019-03-19T20:20:52.325Z,28.64
2019-03-19T20:23:20.536Z,28.78
2019-03-19T20:25:46.925Z,28.84
2019-03-19T20:28:13.361Z,28.69
2019-03-19T20:30:39.822Z,28.50
2019-03-19T20:33:06.213Z,28.76
2019-03-19T20:35:35.001Z,28.95
2019-03-19T20:38:01.331Z,28.95
2019-03-19T20:40:27.641Z,28.63
2019-03-19T20:42:54.021Z,28.92
2019-03-19T20:45:20.308Z,28.91
2019-03-19T20:47:46.632Z,28.96
2019-03-19T20:50:12.999Z,29.01
2019-03-19T20:52:39.128Z,29.24
2019-03-19T20:55:05.526Z,29.11
2019-03-19T20:57:31.924Z,29.08
2019-03-19T20:59:58.210Z,29.06
2019-03-19T21:02:24.645Z,28.94
2019-03-19T21:04:50.995Z,29.05
2019-03-19T21:07:17.350Z,29.14
2019-03-19T21:09:43.731Z,29.10
2019-03-19T21:12:10.099Z,29.13
2019-03-19T21:14:36.424Z,29.12
2019-03-19T21:17:02.841Z,29.18
2019-03-19T21:19:29.205Z,29.13
2019-03-19T21:21:55.540Z,29.08
2019-03-19T21:24:21.869Z,29.21
2019-03-19T21:26:48.376Z,29.27
2019-03-19T21:29:14.719Z,29.18
2019-03-19T21:31:41.046Z,29.16
2019-03-19T21:34:07.407Z,29.21
2019-03-19T21:36:33.722Z,29.37
2019-03-19T21:39:00.063Z,29.58
2019-03-19T21:41:26.465Z,29.61
2019-03-19T21:43:52.853Z,29.68
2019-03-19T21:46:19.181Z,29.80
2019-03-19T21:48:45.510Z,29.90
2019-03-19T21:51:11.905Z,29.89
2019-03-19T21:53:38.890Z,29.88
2019-03-19T21:56:05.271Z,29.98
2019-03-19T21:58:31.568Z,30.01
2019-03-19T22:00:57.892Z,30.13
2019-03-19T22:03:24.263Z,30.05
2019-03-19T22:05:50.602Z,30.11
2019-03-19T22:08:16.971Z,30.09
2019-03-19T22:10:43.317Z,30.23
2019-03-19T22:13:09.658Z,30.22
2019-03-19T22:15:35.990Z,30.22
2019-03-19T22:18:02.369Z,30.21
2019-03-19T22:20:28.700Z,30.28
2019-03-19T22:22:55.031Z,30.27
2019-03-19T22:25:21.547Z,30.21
2019-03-19T22:27:47.876Z,30.27
2019-03-19T22:30:14.276Z,30.37
2019-03-19T22:32:41.799Z,30.33
2019-03-19T22:35:07.055Z,30.37
2019-03-19T22:37:33.377Z,30.36
2019-03-19T22:39:59.701Z,30.38
2019-03-19T22:42:26.034Z,30.43
2019-03-19T22:44:52.353Z,30.43
2019-03-19T22:47:18.692Z,30.45
2019-03-19T22:49:45.021Z,30.40
2019-03-19T22:52:11.417Z,30.43
2019-03-19T22:54:37.854Z,30.47
2019-03-19T22:57:04.181Z,30.51
2019-03-19T22:59:30.556Z,30.49
2019-03-19T23:01:56.890Z,30.62
2019-03-19T23:04:27.098Z,30.62
2019-03-19T23:06:49.878Z,30.54
2019-03-19T23:09:16.208Z,30.53
2019-03-19T23:11:42.553Z,30.57
2019-03-19T23:14:08.907Z,30.51
2019-03-19T23:16:35.284Z,30.56
2019-03-19T23:19:01.653Z,30.62
2019-03-19T23:21:28.165Z,30.68
2019-03-19T23:23:54.503Z,30.62
2019-03-19T23:26:20.894Z,30.64
2019-03-19T23:28:47.242Z,30.64
2019-03-19T23:31:13.591Z,30.68
2019-03-19T23:33:40.020Z,30.68
2019-03-19T23:36:06.391Z,30.72
2019-03-19T23:38:32.767Z,30.84
2019-03-19T23:40:59.095Z,30.72
2019-03-19T23:43:25.467Z,30.72
2019-03-19T23:45:51.817Z,30.74
2019-03-19T23:48:18.174Z,30.79
2019-03-19T23:50:44.575Z,30.62
2019-03-19T23:53:10.915Z,30.71
2019-03-19T23:55:37.280Z,30.80
2019-03-19T23:58:03.619Z,30.72
